WetterOnline ( https://www.wetteronline.at )

Wetter aktuell List

Aktuelles Wetter: List/Sylt (29m)

6-stündlich | Neueste Meldungen
Ortszeit Temperatur Wetter
So, 19.01. 1:00 5.3° C fast wolkenlos
Sa, 18.01. 19:00 5.7° C leicht bewölkt
Sa, 18.01. 13:00 7.1° C wolkig
Sa, 18.01. 7:00 5.2° C wolkig
Sa, 18.01. 1:00 6.8° C bewölkt
Fr, 17.01. 19:00 7.2° C leichter Regen
Fr, 17.01. 13:00 7.3° C bedeckt
Fr, 17.01. 7:00 6.8° C wolkig
Ortszeit Temperatur Wetter
So, 19.01. 6:00 5.7° C wolkenlos
So, 19.01. 5:50 5.7° C wolkenlos
So, 19.01. 5:40 5.5° C leicht bewölkt
So, 19.01. 5:30 5.7° C bewölkt
So, 19.01. 5:20 5.7° C bewölkt
So, 19.01. 5:10 5.7° C bewölkt
So, 19.01. 5:00 5.4° C wolkig
So, 19.01. 4:30 5.3° C leicht bewölkt
So, 19.01. 4:00 4.8° C fast wolkenlos
So, 19.01. 3:30 4.5° C leicht bewölkt
So, 19.01. 3:00 5.3° C leicht bewölkt
Ortszeit Relative Feuchte Sichtweite
So, 19.01. 1:00 80% 19 km
Sa, 18.01. 19:00 80% 20 km
Sa, 18.01. 13:00 76% 23 km
Sa, 18.01. 7:00 85% 21 km
Sa, 18.01. 1:00 88% 20 km
Fr, 17.01. 19:00 94% 4.8 km
Fr, 17.01. 13:00 81% 35 km
Fr, 17.01. 7:00 85% 19 km
Ortszeit Relative Feuchte Sichtweite
So, 19.01. 6:00 83% 18 km
So, 19.01. 5:50 83% -
So, 19.01. 5:40 84% -
So, 19.01. 5:30 83% 23 km
So, 19.01. 5:20 83% -
So, 19.01. 5:10 83% -
So, 19.01. 5:00 81% 25 km
So, 19.01. 4:30 83% 30 km
So, 19.01. 4:00 81% 30 km
So, 19.01. 3:30 82% 35 km
So, 19.01. 3:00 80% 29 km
Ortszeit Niederschlagsmenge Niederschlagsart
So, 19.01. 1:00 0.3 l/m2 in 6 Std. Regen
Sa, 18.01. 19:00 1 l/m2 in 12 Std. Regen
Sa, 18.01. 13:00 0.4 l/m2 in 6 Std. Regen
Sa, 18.01. 7:00 3 l/m2 in 12 Std. Schnee, Regen
Sa, 18.01. 1:00 1 l/m2 in 6 Std. Regen
Fr, 17.01. 19:00 0.3 l/m2 in 12 Std. Regen
Fr, 17.01. 13:00 0.0 l/m2 in 6 Std. -
Fr, 17.01. 7:00 0.0 l/m2 in 12 Std. -
Ortszeit Niederschlagsmenge Niederschlagsart
So, 19.01. 6:00 0.1 l/m2 in 1 Std. Regen
So, 19.01. 5:50 keine Meldung -
So, 19.01. 5:40 keine Meldung -
So, 19.01. 5:30 0.1 l/m2 in 1 Std. Schneeregen
So, 19.01. 5:20 keine Meldung -
So, 19.01. 5:10 keine Meldung -
So, 19.01. 5:00 0.1 l/m2 in 1 Std. Regen
So, 19.01. 4:30 0.0 l/m2 in 1 Std. -
So, 19.01. 4:00 0.1 l/m2 in 1 Std. Regen
So, 19.01. 3:30 0.0 l/m2 in 1 Std. -
So, 19.01. 3:00 0.0 l/m2 in 1 Std. -
Ortszeit Stärke Spitze Richtung
km/h Bft. km/h Grad Sektor
So, 19.01. 1:00 26 4 57 300° NW
Sa, 18.01. 19:00 26 4 56 290° W
Sa, 18.01. 13:00 31 5 67 270° W
Sa, 18.01. 7:00 37 5 76 230° SW
Sa, 18.01. 1:00 37 5 54 220° SW
Fr, 17.01. 19:00 25 4 43 210° SW
Fr, 17.01. 13:00 31 5 46 190° S
Fr, 17.01. 7:00 30 5 50 180° S
Ortszeit Stärke Spitze Richtung
km/h Bft. km/h Grad Sektor
So, 19.01. 6:00 28 4 39 320° NW
So, 19.01. 5:50 28 4 - 320° NW
So, 19.01. 5:40 28 4 - 320° NW
So, 19.01. 5:30 30 5 39 320° NW
So, 19.01. 5:20 30 5 - 320° NW
So, 19.01. 5:10 30 5 - 320° NW
So, 19.01. 5:00 32 5 47 330° NW
So, 19.01. 4:30 28 4 37 320° NW
So, 19.01. 4:00 22 4 48 330° NW
So, 19.01. 3:30 31 5 48 330° NW
So, 19.01. 3:00 28 4 35 320° NW
Ortszeit Untergrenze Bedeckung Gattung
total tief tief mittel hoch
So, 19.01. 1:00 600 m 1/8 1/8 - - -
Sa, 18.01. 19:00 720 m 4/8 3/8 - - -
Sa, 18.01. 13:00 750 m 7/8 3/8 - - -
Sa, 18.01. 7:00 690 m 6/8 6/8 - - -
Sa, 18.01. 1:00 600 m 7/8 7/8 - - -
Fr, 17.01. 19:00 150 m 8/8 8/8 - - -
Fr, 17.01. 13:00 1800 m 8/8 8/8 - - -
Fr, 17.01. 7:00 1500 m 8/8 1/8 - - -
Ortszeit Bedeckungsgrad in Achtel und Wolkenuntergrenze
So, 19.01. 6:00 keine Wolken
So, 19.01. 5:50 keine Wolken
So, 19.01. 5:40 1(1230m) 2(1500m)
So, 19.01. 5:30 1(690m) 6(1200m) 7(2100m)
So, 19.01. 5:20 1(690m) 6(1200m) 7(2100m)
So, 19.01. 5:10 2(660m) 7(2100m) 7(2400m)
So, 19.01. 5:00 1(510m) 4(960m) 6(1800m)
So, 19.01. 4:30 2(1260m) 2(1500m)
So, 19.01. 4:00 1(1080m)
So, 19.01. 3:30 2(1800m) 2(1800m)
So, 19.01. 3:00 2(1200m)
Ortszeit Luftdruck NN (hPa) Tendenz (hPa in 3 Std.)
So, 19.01. 1:00 1024 + 1,9
Sa, 18.01. 19:00 1020 + 2,6
Sa, 18.01. 13:00 1016 + 1,7
Sa, 18.01. 7:00 1012 + 0,9
Sa, 18.01. 1:00 1009 + 0,1
Fr, 17.01. 19:00 1010 - 0,2
Fr, 17.01. 13:00 1011 - 1,4
Fr, 17.01. 7:00 1014 - 2,0
Ortszeit Luftdruck NN (hPa) Tendenz (hPa in 3 Std.)
So, 19.01. 6:00 1028 + 2,5
So, 19.01. 5:50 1028 keine Meldung
So, 19.01. 5:40 1028 keine Meldung
So, 19.01. 5:30 1028 + 2,7
So, 19.01. 5:20 1028 keine Meldung
So, 19.01. 5:10 1028 keine Meldung
So, 19.01. 5:00 1028 + 2,8
So, 19.01. 4:30 1027 + 2,9
So, 19.01. 4:00 1027 + 2,7
So, 19.01. 3:30 1026 + 2,5
So, 19.01. 3:00 1026 + 2,5
Ortszeit Schneehöhe (cm)
So, 19.01. 1:00 0
Sa, 18.01. 19:00 0
Sa, 18.01. 13:00 0
Sa, 18.01. 7:00 0
Sa, 18.01. 1:00 0
Fr, 17.01. 19:00 0
Fr, 17.01. 13:00 0
Fr, 17.01. 7:00 0
Ortszeit Schneehöhe (cm)
So, 19.01. 6:00 0
So, 19.01. 5:50 0
So, 19.01. 5:40 0
So, 19.01. 5:30 0
So, 19.01. 5:20 0
So, 19.01. 5:10 0
So, 19.01. 5:00 0
So, 19.01. 4:30 0
So, 19.01. 4:00 0
So, 19.01. 3:30 0
So, 19.01. 3:00 0
Link zu dieser Seite / Seite empfehlen

Das Wetter in ...